sensor_id;sensor_type;location;lat;lon;timestamp;temperature;humidity
51739;DHT22;37815;52.692;6.226;2023-04-19T00:04:28;13.30;91.30
51739;DHT22;37815;52.692;6.226;2023-04-19T00:09:29;13.20;91.30
51739;DHT22;37815;52.692;6.226;2023-04-19T00:14:30;13.30;91.30
51739;DHT22;37815;52.692;6.226;2023-04-19T00:19:31;13.20;91.30
51739;DHT22;37815;52.692;6.226;2023-04-19T00:24:31;13.20;91.40
51739;DHT22;37815;52.692;6.226;2023-04-19T00:29:32;13.10;91.40
51739;DHT22;37815;52.692;6.226;2023-04-19T00:34:32;13.10;91.40
51739;DHT22;37815;52.692;6.226;2023-04-19T00:39:33;13.10;91.40
51739;DHT22;37815;52.692;6.226;2023-04-19T00:44:34;13.10;91.50
51739;DHT22;37815;52.692;6.226;2023-04-19T00:49:35;13.10;91.50
51739;DHT22;37815;52.692;6.226;2023-04-19T00:54:36;13.00;91.50
51739;DHT22;37815;52.692;6.226;2023-04-19T00:59:37;13.00;91.50
51739;DHT22;37815;52.692;6.226;2023-04-19T01:04:38;13.00;91.50
51739;DHT22;37815;52.692;6.226;2023-04-19T01:09:45;13.00;91.50
51739;DHT22;37815;52.692;6.226;2023-04-19T01:14:46;13.00;91.50
51739;DHT22;37815;52.692;6.226;2023-04-19T01:19:46;13.50;91.70
51739;DHT22;37815;52.692;6.226;2023-04-19T01:24:47;12.90;91.60
51739;DHT22;37815;52.692;6.226;2023-04-19T01:29:48;12.90;91.60
51739;DHT22;37815;52.692;6.226;2023-04-19T01:34:50;12.90;91.60
51739;DHT22;37815;52.692;6.226;2023-04-19T01:39:51;12.90;91.60
51739;DHT22;37815;52.692;6.226;2023-04-19T01:44:51;12.90;91.60
51739;DHT22;37815;52.692;6.226;2023-04-19T01:49:52;12.80;91.60
51739;DHT22;37815;52.692;6.226;2023-04-19T01:54:53;12.80;91.60
51739;DHT22;37815;52.692;6.226;2023-04-19T01:59:53;12.80;91.60
51739;DHT22;37815;52.692;6.226;2023-04-19T02:04:54;12.80;91.60
51739;DHT22;37815;52.692;6.226;2023-04-19T02:09:54;12.80;91.60
51739;DHT22;37815;52.692;6.226;2023-04-19T02:14:58;12.80;91.60
51739;DHT22;37815;52.692;6.226;2023-04-19T02:20:01;12.80;91.70
51739;DHT22;37815;52.692;6.226;2023-04-19T02:25:04;12.70;91.60
51739;DHT22;37815;52.692;6.226;2023-04-19T02:30:05;12.70;91.70
51739;DHT22;37815;52.692;6.226;2023-04-19T02:35:06;12.70;91.70
51739;DHT22;37815;52.692;6.226;2023-04-19T02:40:07;12.70;91.70
51739;DHT22;37815;52.692;6.226;2023-04-19T02:45:08;12.70;91.70
51739;DHT22;37815;52.692;6.226;2023-04-19T02:50:09;12.70;91.70
51739;DHT22;37815;52.692;6.226;2023-04-19T02:55:11;12.70;91.70
51739;DHT22;37815;52.692;6.226;2023-04-19T03:00:12;12.60;91.70
51739;DHT22;37815;52.692;6.226;2023-04-19T03:05:13;12.60;91.70
51739;DHT22;37815;52.692;6.226;2023-04-19T03:10:13;12.70;91.80
51739;DHT22;37815;52.692;6.226;2023-04-19T03:15:14;12.60;91.80
51739;DHT22;37815;52.692;6.226;2023-04-19T03:20:15;12.60;91.80
51739;DHT22;37815;52.692;6.226;2023-04-19T03:25:16;12.60;91.80
51739;DHT22;37815;52.692;6.226;2023-04-19T03:30:17;12.50;91.80
51739;DHT22;37815;52.692;6.226;2023-04-19T03:35:18;12.50;91.80
51739;DHT22;37815;52.692;6.226;2023-04-19T03:40:19;12.50;91.80
51739;DHT22;37815;52.692;6.226;2023-04-19T03:45:20;12.50;91.80
51739;DHT22;37815;52.692;6.226;2023-04-19T03:50:20;12.40;91.80
51739;DHT22;37815;52.692;6.226;2023-04-19T03:55:21;12.40;91.80
51739;DHT22;37815;52.692;6.226;2023-04-19T04:00:22;12.40;91.80
51739;DHT22;37815;52.692;6.226;2023-04-19T04:05:22;12.40;91.80
51739;DHT22;37815;52.692;6.226;2023-04-19T04:10:23;12.40;91.80
51739;DHT22;37815;52.692;6.226;2023-04-19T04:15:23;12.30;91.80
51739;DHT22;37815;52.692;6.226;2023-04-19T04:20:24;12.30;91.80
51739;DHT22;37815;52.692;6.226;2023-04-19T04:25:25;12.30;91.80
51739;DHT22;37815;52.692;6.226;2023-04-19T04:30:25;12.30;91.80
51739;DHT22;37815;52.692;6.226;2023-04-19T04:35:26;12.20;91.80
51739;DHT22;37815;52.692;6.226;2023-04-19T04:40:28;12.30;91.80
51739;DHT22;37815;52.692;6.226;2023-04-19T04:45:28;12.20;91.80
51739;DHT22;37815;52.692;6.226;2023-04-19T04:50:29;12.20;91.80
51739;DHT22;37815;52.692;6.226;2023-04-19T04:55:30;12.10;91.80
51739;DHT22;37815;52.692;6.226;2023-04-19T05:00:31;12.30;91.80
51739;DHT22;37815;52.692;6.226;2023-04-19T05:05:32;12.10;91.80
51739;DHT22;37815;52.692;6.226;2023-04-19T05:10:32;12.10;91.80
51739;DHT22;37815;52.692;6.226;2023-04-19T05:15:33;12.10;91.70
51739;DHT22;37815;52.692;6.226;2023-04-19T05:20:33;12.10;91.70
51739;DHT22;37815;52.692;6.226;2023-04-19T05:25:34;12.10;91.70
51739;DHT22;37815;52.692;6.226;2023-04-19T05:30:35;12.10;91.70
51739;DHT22;37815;52.692;6.226;2023-04-19T05:35:35;12.00;91.60
51739;DHT22;37815;52.692;6.226;2023-04-19T05:40:36;12.10;91.70
51739;DHT22;37815;52.692;6.226;2023-04-19T05:45:38;12.00;91.60
51739;DHT22;37815;52.692;6.226;2023-04-19T05:50:38;12.00;91.60
51739;DHT22;37815;52.692;6.226;2023-04-19T05:55:39;12.00;91.60
51739;DHT22;37815;52.692;6.226;2023-04-19T06:00:40;12.00;91.50
51739;DHT22;37815;52.692;6.226;2023-04-19T06:05:42;12.00;91.80
51739;DHT22;37815;52.692;6.226;2023-04-19T06:10:42;12.00;91.50
51739;DHT22;37815;52.692;6.226;2023-04-19T06:15:47;11.90;91.50
51739;DHT22;37815;52.692;6.226;2023-04-19T06:20:48;12.00;91.50
51739;DHT22;37815;52.692;6.226;2023-04-19T06:25:49;12.00;91.40
51739;DHT22;37815;52.692;6.226;2023-04-19T06:30:49;11.90;91.40
51739;DHT22;37815;52.692;6.226;2023-04-19T06:35:50;11.90;91.50
51739;DHT22;37815;52.692;6.226;2023-04-19T06:40:50;11.90;91.50
51739;DHT22;37815;52.692;6.226;2023-04-19T06:46:01;11.90;91.40
51739;DHT22;37815;52.692;6.226;2023-04-19T06:51:02;11.90;91.50
51739;DHT22;37815;52.692;6.226;2023-04-19T06:56:03;11.90;91.40
51739;DHT22;37815;52.692;6.226;2023-04-19T07:01:05;11.90;91.40
51739;DHT22;37815;52.692;6.226;2023-04-19T07:06:05;11.90;91.40
51739;DHT22;37815;52.692;6.226;2023-04-19T07:11:06;11.90;91.40
51739;DHT22;37815;52.692;6.226;2023-04-19T07:16:07;11.90;91.40
51739;DHT22;37815;52.692;6.226;2023-04-19T07:21:07;11.90;91.40
51739;DHT22;37815;52.692;6.226;2023-04-19T07:26:08;12.00;91.50
51739;DHT22;37815;52.692;6.226;2023-04-19T07:31:16;12.00;91.50
51739;DHT22;37815;52.692;6.226;2023-04-19T07:36:17;12.00;91.60
51739;DHT22;37815;52.692;6.226;2023-04-19T07:41:18;12.00;91.40
51739;DHT22;37815;52.692;6.226;2023-04-19T07:46:19;12.10;91.50
51739;DHT22;37815;52.692;6.226;2023-04-19T07:51:19;12.10;91.50
51739;DHT22;37815;52.692;6.226;2023-04-19T07:56:22;12.10;91.50
51739;DHT22;37815;52.692;6.226;2023-04-19T08:01:25;12.10;91.50
51739;DHT22;37815;52.692;6.226;2023-04-19T08:06:26;12.10;91.50
51739;DHT22;37815;52.692;6.226;2023-04-19T08:11:27;12.10;91.60
51739;DHT22;37815;52.692;6.226;2023-04-19T08:16:27;12.10;91.50
51739;DHT22;37815;52.692;6.226;2023-04-19T08:21:29;12.20;91.70
51739;DHT22;37815;52.692;6.226;2023-04-19T08:26:30;12.20;91.60
51739;DHT22;37815;52.692;6.226;2023-04-19T08:31:31;12.30;91.60
51739;DHT22;37815;52.692;6.226;2023-04-19T08:36:32;12.20;90.60
51739;DHT22;37815;52.692;6.226;2023-04-19T08:41:35;11.60;86.20
51739;DHT22;37815;52.692;6.226;2023-04-19T08:46:36;11.10;83.60
51739;DHT22;37815;52.692;6.226;2023-04-19T08:51:38;10.90;83.00
51739;DHT22;37815;52.692;6.226;2023-04-19T08:56:39;10.80;81.30
51739;DHT22;37815;52.692;6.226;2023-04-19T09:01:40;10.70;79.30
51739;DHT22;37815;52.692;6.226;2023-04-19T09:06:41;10.70;76.70
51739;DHT22;37815;52.692;6.226;2023-04-19T09:11:41;10.70;74.10
51739;DHT22;37815;52.692;6.226;2023-04-19T09:16:42;10.70;72.80
51739;DHT22;37815;52.692;6.226;2023-04-19T09:21:43;10.80;72.10
51739;DHT22;37815;52.692;6.226;2023-04-19T09:26:53;10.90;72.10
51739;DHT22;37815;52.692;6.226;2023-04-19T09:31:57;11.00;70.50
51739;DHT22;37815;52.692;6.226;2023-04-19T09:37:11;11.10;69.60
51739;DHT22;37815;52.692;6.226;2023-04-19T09:42:12;11.20;68.80
51739;DHT22;37815;52.692;6.226;2023-04-19T09:47:27;11.20;69.00
51739;DHT22;37815;52.692;6.226;2023-04-19T09:52:29;11.40;66.10
51739;DHT22;37815;52.692;6.226;2023-04-19T09:57:32;11.40;66.20
51739;DHT22;37815;52.692;6.226;2023-04-19T10:02:33;11.50;66.30
51739;DHT22;37815;52.692;6.226;2023-04-19T10:07:34;11.70;66.90
51739;DHT22;37815;52.692;6.226;2023-04-19T10:12:36;11.80;65.50
51739;DHT22;37815;52.692;6.226;2023-04-19T10:17:37;11.90;64.30
51739;DHT22;37815;52.692;6.226;2023-04-19T10:22:40;12.00;62.70
51739;DHT22;37815;52.692;6.226;2023-04-19T10:27:42;11.90;62.10
51739;DHT22;37815;52.692;6.226;2023-04-19T10:32:53;12.00;62.20
51739;DHT22;37815;52.692;6.226;2023-04-19T10:38:13;12.10;61.80
51739;DHT22;37815;52.692;6.226;2023-04-19T10:43:16;12.20;61.90
51739;DHT22;37815;52.692;6.226;2023-04-19T11:04:02;12.60;62.60
51739;DHT22;37815;52.692;6.226;2023-04-19T11:09:03;12.70;63.60
51739;DHT22;37815;52.692;6.226;2023-04-19T11:14:07;12.80;63.60
51739;DHT22;37815;52.692;6.226;2023-04-19T11:19:07;12.90;63.10
51739;DHT22;37815;52.692;6.226;2023-04-19T11:24:09;12.90;62.80
51739;DHT22;37815;52.692;6.226;2023-04-19T11:29:10;13.10;60.90
51739;DHT22;37815;52.692;6.226;2023-04-19T11:34:11;13.30;61.30
51739;DHT22;37815;52.692;6.226;2023-04-19T11:39:11;13.40;60.70
51739;DHT22;37815;52.692;6.226;2023-04-19T11:44:18;13.40;59.50
51739;DHT22;37815;52.692;6.226;2023-04-19T11:49:26;13.40;60.00
51739;DHT22;37815;52.692;6.226;2023-04-19T11:54:27;13.60;59.90
51739;DHT22;37815;52.692;6.226;2023-04-19T11:59:28;13.60;59.90
51739;DHT22;37815;52.692;6.226;2023-04-19T12:04:29;13.70;60.10
51739;DHT22;37815;52.692;6.226;2023-04-19T12:09:35;13.60;59.20
51739;DHT22;37815;52.692;6.226;2023-04-19T12:14:36;13.80;58.80
51739;DHT22;37815;52.692;6.226;2023-04-19T12:19:42;13.90;58.80
51739;DHT22;37815;52.692;6.226;2023-04-19T12:24:43;14.20;58.80
51739;DHT22;37815;52.692;6.226;2023-04-19T12:29:43;14.20;59.40
51739;DHT22;37815;52.692;6.226;2023-04-19T12:34:45;14.30;58.70
51739;DHT22;37815;52.692;6.226;2023-04-19T12:39:45;14.30;58.90
51739;DHT22;37815;52.692;6.226;2023-04-19T12:44:46;14.20;57.20
51739;DHT22;37815;52.692;6.226;2023-04-19T12:49:47;14.30;58.30
51739;DHT22;37815;52.692;6.226;2023-04-19T12:54:47;14.60;58.50
51739;DHT22;37815;52.692;6.226;2023-04-19T12:59:48;14.50;58.30
51739;DHT22;37815;52.692;6.226;2023-04-19T13:04:49;14.70;58.90
51739;DHT22;37815;52.692;6.226;2023-04-19T13:09:50;14.60;59.00
51739;DHT22;37815;52.692;6.226;2023-04-19T13:14:50;14.70;59.40
51739;DHT22;37815;52.692;6.226;2023-04-19T13:19:51;14.80;59.50
51739;DHT22;37815;52.692;6.226;2023-04-19T13:24:52;15.10;59.70
51739;DHT22;37815;52.692;6.226;2023-04-19T13:29:53;15.70;59.70
51739;DHT22;37815;52.692;6.226;2023-04-19T13:34:55;15.50;59.50
51739;DHT22;37815;52.692;6.226;2023-04-19T13:39:55;15.50;59.40
51739;DHT22;37815;52.692;6.226;2023-04-19T13:44:56;15.40;59.00
51739;DHT22;37815;52.692;6.226;2023-04-19T13:49:56;15.30;59.80
51739;DHT22;37815;52.692;6.226;2023-04-19T13:54:57;15.40;60.80
51739;DHT22;37815;52.692;6.226;2023-04-19T13:59:58;15.50;61.70
51739;DHT22;37815;52.692;6.226;2023-04-19T14:04:58;15.60;60.30
51739;DHT22;37815;52.692;6.226;2023-04-19T14:09:59;15.40;60.10
51739;DHT22;37815;52.692;6.226;2023-04-19T14:14:59;15.50;60.60
51739;DHT22;37815;52.692;6.226;2023-04-19T14:20:00;15.70;60.20
51739;DHT22;37815;52.692;6.226;2023-04-19T14:25:03;15.90;59.60
51739;DHT22;37815;52.692;6.226;2023-04-19T14:30:05;16.00;59.90
51739;DHT22;37815;52.692;6.226;2023-04-19T14:35:08;16.10;59.70
51739;DHT22;37815;52.692;6.226;2023-04-19T14:40:12;16.10;60.00
51739;DHT22;37815;52.692;6.226;2023-04-19T14:45:17;16.20;59.80
51739;DHT22;37815;52.692;6.226;2023-04-19T14:50:17;16.20;59.70
51739;DHT22;37815;52.692;6.226;2023-04-19T14:55:18;16.10;59.50
51739;DHT22;37815;52.692;6.226;2023-04-19T15:00:19;16.00;59.20
51739;DHT22;37815;52.692;6.226;2023-04-19T15:05:21;16.00;59.40
51739;DHT22;37815;52.692;6.226;2023-04-19T15:10:22;15.90;59.60
51739;DHT22;37815;52.692;6.226;2023-04-19T15:15:23;16.10;59.30
51739;DHT22;37815;52.692;6.226;2023-04-19T15:20:23;16.20;59.20
51739;DHT22;37815;52.692;6.226;2023-04-19T15:25:24;16.40;58.80
51739;DHT22;37815;52.692;6.226;2023-04-19T15:30:25;16.20;58.30
51739;DHT22;37815;52.692;6.226;2023-04-19T15:35:26;16.10;58.40
51739;DHT22;37815;52.692;6.226;2023-04-19T15:40:26;15.70;57.70
51739;DHT22;37815;52.692;6.226;2023-04-19T15:45:35;15.90;58.40
51739;DHT22;37815;52.692;6.226;2023-04-19T15:50:37;15.90;58.50
51739;DHT22;37815;52.692;6.226;2023-04-19T15:55:38;15.60;58.60
51739;DHT22;37815;52.692;6.226;2023-04-19T16:00:39;15.40;58.90
51739;DHT22;37815;52.692;6.226;2023-04-19T16:05:40;15.40;58.80
51739;DHT22;37815;52.692;6.226;2023-04-19T16:10:40;15.20;58.00
51739;DHT22;37815;52.692;6.226;2023-04-19T16:15:42;15.30;58.10
51739;DHT22;37815;52.692;6.226;2023-04-19T16:20:43;15.10;57.90
51739;DHT22;37815;52.692;6.226;2023-04-19T16:25:43;14.90;58.10
51739;DHT22;37815;52.692;6.226;2023-04-19T16:30:45;14.70;57.90
51739;DHT22;37815;52.692;6.226;2023-04-19T16:35:46;14.60;58.20
51739;DHT22;37815;52.692;6.226;2023-04-19T16:40:48;14.40;58.30
51739;DHT22;37815;52.692;6.226;2023-04-19T16:45:48;14.30;57.80
51739;DHT22;37815;52.692;6.226;2023-04-19T16:50:49;14.20;58.10
51739;DHT22;37815;52.692;6.226;2023-04-19T16:55:49;14.10;57.60
51739;DHT22;37815;52.692;6.226;2023-04-19T17:00:50;14.00;57.60
51739;DHT22;37815;52.692;6.226;2023-04-19T17:05:51;14.00;58.10
51739;DHT22;37815;52.692;6.226;2023-04-19T17:10:52;14.10;58.90
51739;DHT22;37815;52.692;6.226;2023-04-19T17:15:52;14.40;59.40
51739;DHT22;37815;52.692;6.226;2023-04-19T17:20:53;14.60;59.70
51739;DHT22;37815;52.692;6.226;2023-04-19T17:25:53;14.80;60.00
51739;DHT22;37815;52.692;6.226;2023-04-19T17:30:54;15.00;60.40
51739;DHT22;37815;52.692;6.226;2023-04-19T17:35:55;15.10;60.70
51739;DHT22;37815;52.692;6.226;2023-04-19T17:40:55;15.20;61.20
51739;DHT22;37815;52.692;6.226;2023-04-19T17:45:57;15.20;61.50
51739;DHT22;37815;52.692;6.226;2023-04-19T17:50:58;15.30;61.90
51739;DHT22;37815;52.692;6.226;2023-04-19T17:55:59;15.40;62.20
51739;DHT22;37815;52.692;6.226;2023-04-19T18:01:00;15.30;62.60
51739;DHT22;37815;52.692;6.226;2023-04-19T18:06:00;15.30;63.10
51739;DHT22;37815;52.692;6.226;2023-04-19T18:11:01;15.40;63.40
51739;DHT22;37815;52.692;6.226;2023-04-19T18:16:02;15.30;63.50
51739;DHT22;37815;52.692;6.226;2023-04-19T18:21:04;15.30;63.80
51739;DHT22;37815;52.692;6.226;2023-04-19T18:26:05;15.30;64.10
51739;DHT22;37815;52.692;6.226;2023-04-19T18:31:06;15.30;64.40
51739;DHT22;37815;52.692;6.226;2023-04-19T18:36:07;15.30;64.70
51739;DHT22;37815;52.692;6.226;2023-04-19T18:41:08;15.20;64.90
51739;DHT22;37815;52.692;6.226;2023-04-19T18:46:09;15.30;65.20
51739;DHT22;37815;52.692;6.226;2023-04-19T18:51:09;15.20;65.40
51739;DHT22;37815;52.692;6.226;2023-04-19T18:56:10;15.10;65.50
51739;DHT22;37815;52.692;6.226;2023-04-19T19:01:11;15.10;65.70
51739;DHT22;37815;52.692;6.226;2023-04-19T19:06:11;15.10;65.90
51739;DHT22;37815;52.692;6.226;2023-04-19T19:11:13;15.00;66.00
51739;DHT22;37815;52.692;6.226;2023-04-19T19:16:13;15.00;66.10
51739;DHT22;37815;52.692;6.226;2023-04-19T19:21:14;14.90;66.30
51739;DHT22;37815;52.692;6.226;2023-04-19T19:26:14;14.90;66.50
51739;DHT22;37815;52.692;6.226;2023-04-19T19:31:15;14.80;66.60
51739;DHT22;37815;52.692;6.226;2023-04-19T19:36:16;14.80;66.70
51739;DHT22;37815;52.692;6.226;2023-04-19T19:41:16;14.80;66.90
51739;DHT22;37815;52.692;6.226;2023-04-19T19:46:17;14.70;66.90
51739;DHT22;37815;52.692;6.226;2023-04-19T19:51:18;14.70;67.10
51739;DHT22;37815;52.692;6.226;2023-04-19T19:56:18;14.60;67.10
51739;DHT22;37815;52.692;6.226;2023-04-19T20:01:19;14.60;67.20
51739;DHT22;37815;52.692;6.226;2023-04-19T20:06:20;14.50;67.30
51739;DHT22;37815;52.692;6.226;2023-04-19T20:11:21;14.50;67.40
51739;DHT22;37815;52.692;6.226;2023-04-19T20:16:22;14.50;67.50
51739;DHT22;37815;52.692;6.226;2023-04-19T20:21:22;14.40;67.50
51739;DHT22;37815;52.692;6.226;2023-04-19T20:26:23;14.40;67.60
51739;DHT22;37815;52.692;6.226;2023-04-19T20:31:23;14.30;67.60
51739;DHT22;37815;52.692;6.226;2023-04-19T20:36:24;14.30;67.60
51739;DHT22;37815;52.692;6.226;2023-04-19T20:41:26;14.30;67.60
51739;DHT22;37815;52.692;6.226;2023-04-19T20:46:28;14.20;67.60
51739;DHT22;37815;52.692;6.226;2023-04-19T20:51:29;14.30;67.70
51739;DHT22;37815;52.692;6.226;2023-04-19T20:56:30;14.30;67.70
51739;DHT22;37815;52.692;6.226;2023-04-19T21:01:32;15.00;68.00
51739;DHT22;37815;52.692;6.226;2023-04-19T21:06:33;14.10;67.60
51739;DHT22;37815;52.692;6.226;2023-04-19T21:11:34;14.00;67.50
51739;DHT22;37815;52.692;6.226;2023-04-19T21:16:35;14.00;67.50
51739;DHT22;37815;52.692;6.226;2023-04-19T21:21:35;14.00;67.60
51739;DHT22;37815;52.692;6.226;2023-04-19T21:26:36;14.40;67.90
51739;DHT22;37815;52.692;6.226;2023-04-19T21:31:36;13.90;67.50
51739;DHT22;37815;52.692;6.226;2023-04-19T21:36:37;13.90;67.50
51739;DHT22;37815;52.692;6.226;2023-04-19T21:41:37;13.80;68.10
51739;DHT22;37815;52.692;6.226;2023-04-19T21:46:38;13.80;67.50
51739;DHT22;37815;52.692;6.226;2023-04-19T21:51:39;13.90;67.60
51739;DHT22;37815;52.692;6.226;2023-04-19T21:56:40;14.70;68.10
51739;DHT22;37815;52.692;6.226;2023-04-19T22:01:41;13.70;67.50
51739;DHT22;37815;52.692;6.226;2023-04-19T22:06:41;14.70;68.10
51739;DHT22;37815;52.692;6.226;2023-04-19T22:11:49;14.50;68.10
51739;DHT22;37815;52.692;6.226;2023-04-19T22:16:49;13.60;67.60
51739;DHT22;37815;52.692;6.226;2023-04-19T22:21:50;13.70;67.70
51739;DHT22;37815;52.692;6.226;2023-04-19T22:26:52;14.30;68.10
51739;DHT22;37815;52.692;6.226;2023-04-19T22:31:53;13.40;67.60
51739;DHT22;37815;52.692;6.226;2023-04-19T22:36:53;13.40;67.60
51739;DHT22;37815;52.692;6.226;2023-04-19T22:41:54;13.60;67.80
51739;DHT22;37815;52.692;6.226;2023-04-19T22:46:55;13.40;67.70
51739;DHT22;37815;52.692;6.226;2023-04-19T22:51:57;13.70;67.90
51739;DHT22;37815;52.692;6.226;2023-04-19T22:56:59;13.30;67.80
51739;DHT22;37815;52.692;6.226;2023-04-19T23:01:59;13.20;67.80
51739;DHT22;37815;52.692;6.226;2023-04-19T23:07:01;13.20;67.90
51739;DHT22;37815;52.692;6.226;2023-04-19T23:12:02;14.00;68.30
51739;DHT22;37815;52.692;6.226;2023-04-19T23:17:02;13.60;68.20
51739;DHT22;37815;52.692;6.226;2023-04-19T23:22:04;13.40;68.20
51739;DHT22;37815;52.692;6.226;2023-04-19T23:27:05;13.10;68.10
51739;DHT22;37815;52.692;6.226;2023-04-19T23:32:05;13.50;68.30
51739;DHT22;37815;52.692;6.226;2023-04-19T23:37:06;13.60;68.40
51739;DHT22;37815;52.692;6.226;2023-04-19T23:42:08;13.00;68.10
51739;DHT22;37815;52.692;6.226;2023-04-19T23:47:09;13.20;68.40
51739;DHT22;37815;52.692;6.226;2023-04-19T23:52:09;13.20;68.40
51739;DHT22;37815;52.692;6.226;2023-04-19T23:57:10;13.20;68.40
